Nearby METAR Reports

 

KSJC - San Jose, California, USA
Distance from station: NE 14km
Updated: 03/08/2020 06:53
Mostly cloudy
Mostly cloudy
 Wind from calm
Wind: Calm
Temperature: 17°C
Dew Point: 12°C
Humidity: 73%
Barometer: 1016.6 hPa
Clouds: Mostly cloudy
Visibility: 16 km
Cloud details: Few Clouds 1524 m
Mostly cloudy 2438 m
2020/08/03 13:53 KSJC 031353Z 00000KT 10SM FEW050 BKN080 17/12 A3002 RMK AO2 SLP163 FU FEW050 FU BKN080 T01670122
KNUQ - Moffett Nas/Mtn, California, USA
Distance from station: N 14km
Updated: 03/08/2020 06:55
Clear
Clear
 Wind from calm
Wind: Calm
Temperature: 17°C
Dew Point: 14°C
Humidity: 83%
Barometer: 1016.6 hPa
Clouds: Clear
Visibility: 16 km
2020/08/03 13:55 KNUQ 031355Z AUTO 00000KT 10SM CLR 17/14 A3002 RMK AO2
 
KPAO - Palo Alto, California, USA
Distance from station: NNW 23km
Updated: 02/08/2020 18:47
NOT Current
Clear
Clear
 Wind from N
Wind: N 20 km/h
Temperature: 21°C
Dew Point: 14°C
Humidity: 64%
Barometer: 1016.3 hPa
Clouds: Clear
Visibility: 16 km
2020/08/03 01:47 KPAO 030147Z 35011KT 10SM SKC 21/14 A3001
KRHV - San Jose/Reid, California, USA
Distance from station: ENE 19km
Updated: 03/08/2020 06:47
Clear
Clear
 Wind from calm
Wind: Calm
Temperature: 16°C
Dew Point: 10°C
Humidity: 68%
Barometer: 1016.6 hPa
Clouds: Clear
Visibility: 16 km
2020/08/03 13:47 KRHV 031347Z 00000KT 10SM SKC 16/10 A3002
 
KOAK - Oakland, California, USA
Distance from station: NNW 50km
Updated: 03/08/2020 06:53
Few Clouds
Few Clouds
 Wind from E
Wind: E 6 km/h
Temperature: 14°C
Dew Point: 11°C
Humidity: 82%
Barometer: 1016.6 hPa
Clouds: Few Clouds
Visibility: 16 km
Cloud details: Few Clouds 305 m
Few Clouds 7620 m
2020/08/03 13:53 KOAK 031353Z 08003KT 10SM FEW010 FEW250 14/11 A3002 RMK AO2 SLP164 T01440111
KSQL - San Carlos Airpo, California, USA
Distance from station: NW 34km
Updated: 03/08/2020 06:55
Clear
Clear
 Wind from NW
Wind: NW 7 km/h
Temperature: 16°C
Dew Point: 12°C
Humidity: 77%
Barometer: 1016.9 hPa
Clouds: Clear
Visibility: 16 km
2020/08/03 13:55 KSQL 031355Z AUTO 32004KT 10SM CLR 16/12 A3003 RMK AO2
 
KSFO - San Francisco, California, USA
Distance from station: NW 49km
Updated: 03/08/2020 06:56
Few Clouds
Few Clouds
 Wind from WNW
Wind: WNW 20 km/h
Temperature: 14°C
Dew Point: 12°C
Humidity: 88%
Barometer: 1016.3 hPa
Clouds: Few Clouds
Visibility: 16 km
Cloud details: Few Clouds 152 m
Few Clouds 6096 m
2020/08/03 13:56 KSFO 031356Z 30011KT 10SM FEW005 FEW200 14/12 A3001 RMK AO2 SLP163 T01440117
KE16 - San Martin, California, USA
Distance from station: ESE 43km
Updated: 03/08/2020 07:30
Clear
Clear
 Wind from calm
Wind: Calm
Temperature: 15°C
Dew Point: 10°C
Humidity: 72%
Barometer: 1017.9 hPa
Clouds: Clear
Visibility: 16 km
2020/08/03 14:30 KE16 031430Z AUTO 00000KT 10SM CLR 15/10 A3006 RMK AO2 PWINO PNO
 
KWVI - Watsonville, California, USA
Distance from station: SSE 44km
Updated: 03/08/2020 06:53
Clear
Clear
 Wind from calm
Wind: Calm
Temperature: 12°C
Dew Point: 11°C
Humidity: 94%
Barometer: 1017.3 hPa
Clouds: Clear
Visibility: 16 km
2020/08/03 13:53 KWVI 031353Z AUTO 00000KT 10SM CLR 12/11 A3004 RMK AO2 SLP170 T01220111
KHAF - Half Moon Bay, California, USA
Distance from station: WNW 50km
Updated: 03/08/2020 07:35
Mist, Clear
Mist, Clear
 Wind from calm
Wind: Calm
Temperature: 12°C
Dew Point: 12°C
Humidity: 100%
Barometer: 1017.9 hPa
Summary: Mist
Clouds: Clear
Visibility: 8 km
2020/08/03 14:35 KHAF 031435Z AUTO 00000KT 5SM BR CLR 12/12 A3006 RMK AO2
 
KHWD - Hayward, California, USA
Distance from station: N 44km
Updated: 03/08/2020 06:54
Clear
Clear
 Wind from calm
Wind: Calm
Temperature: 17°C
Dew Point: 12°C
Humidity: 73%
Barometer: 1016.6 hPa
Clouds: Clear
Visibility: 16 km
2020/08/03 13:54 KHWD 031354Z AUTO 00000KT 10SM CLR 17/12 A3002 RMK AO2 SLP173 T01670122
KLVK - Livermore, California, USA
Distance from station: NNE 51km
Updated: 03/08/2020 06:53
Clear
Clear
 Wind from calm
Wind: Calm
Temperature: 16°C
Dew Point: 11°C
Humidity: 72%
Barometer: 1016.3 hPa
Clouds: Clear
Visibility: 16 km
2020/08/03 13:53 KLVK 031353Z AUTO 00000KT 10SM CLR 16/11 A3001 RMK AO2 SLP157 T01560111